ENOV/HOV METAR and TAF weather

Enter ICAO airport designator
Station Type Date Time Source
ENOV METAR 2019/02/22 21:50 UTC NOAA

ENOV 222150Z 05006KT 350V130 9999 BKN032 10/04 Q1031 RMK WIND 2175FT 15027KT


Station Type Date Time Source
ENOV Decoded METAR 2019/02/22 21:50 UTC NOAA

Orsta-Volda / Hovden, Norway (ENOV) 62-11N 006-04E 74M
Feb 22, 2019 - 04:50 PM EST / 2019.02.22 2150 UTC
Wind: from the NE (050 degrees) at 7 MPH (6 KT) (direction variable):0
Visibility: greater than 7 mile(s):0
Sky conditions: mostly cloudy
Temperature: 50 F (10 C)
Dew Point: 39 F (4 C)
Relative Humidity: 66%
Pressure (altimeter): 30.45 in. Hg (1031 hPa)
ob: ENOV 222150Z 05006KT 350V130 9999 BKN032 10/04 Q1031 RMK WIND 2175FT 15027KT
cycle: 22

Station Type Date Time Source
ENOV TAF UTC NOAA

Error!


Example: see airport list